Time;durP1;ratioP1;P1;durP2;ratioP2;P2;SDS_P1;SDS_P2;PMS_P1;PMS_P2;Temp;Humidity;BMP_temperature;BMP_pressure;BME280_temperature;BME280_humidity;BME280_pressure;Samples;Min_cycle;Max_cycle;Signal;HPM_P1;HPM_P2
2022/10/20 00:01:06;;;;;;;38.05;25.02;;;;;;;16.30;100.00;96781.19;4966539;28;20521;-44
2022/10/20 00:03:34;;;;;;;35.85;21.65;;;;;;;16.36;100.00;96771.72;4966198;28;20074;-47
2022/10/20 00:06:08;;;;;;;37.05;24.48;;;;;;;16.09;100.00;96779.13;4965717;28;20077;-49
2022/10/20 00:08:38;;;;;;;37.03;24.63;;;;;;;16.32;100.00;96781.03;4981257;28;20039;-46
2022/10/20 00:11:08;;;;;;;37.35;25.42;;;;;;;16.16;100.00;96786.41;4965831;28;20073;-46
2022/10/20 00:13:37;;;;;;;38.17;26.98;;;;;;;16.67;100.00;96784.22;4965519;28;20054;-46
2022/10/20 00:16:06;;;;;;;39.25;24.48;;;;;;;16.57;100.00;96782.59;4967901;28;20074;-43
2022/10/20 00:18:35;;;;;;;37.38;24.30;;;;;;;16.52;100.00;96774.31;4965407;28;20081;-47
2022/10/20 00:21:05;;;;;;;38.97;25.63;;;;;;;16.28;100.00;96771.75;4967423;28;20550;-49
2022/10/20 00:23:34;;;;;;;40.17;27.15;;;;;;;16.13;100.00;96777.75;4962795;28;20070;-43
2022/10/20 00:26:05;;;;;;;36.78;25.13;;;;;;;15.73;100.00;96783.22;4967340;28;20089;-44
2022/10/20 00:28:34;;;;;;;34.53;21.42;;;;;;;16.54;100.00;96790.91;4961152;28;20082;-48
2022/10/20 00:31:03;;;;;;;43.03;29.88;;;;;;;15.95;100.00;96784.31;4966989;28;20210;-45
2022/10/20 00:33:32;;;;;;;32.63;22.15;;;;;;;16.21;100.00;96784.06;4964250;28;20090;-46
2022/10/20 00:36:01;;;;;;;36.33;22.35;;;;;;;16.19;100.00;96778.91;4966247;28;20128;-47
2022/10/20 00:38:29;;;;;;;41.08;23.88;;;;;;;16.32;100.00;96781.88;4966318;28;20078;-48
2022/10/20 00:40:59;;;;;;;44.28;28.05;;;;;;;16.13;100.00;96780.44;4965149;28;20069;-48
2022/10/20 00:43:43;;;;;;;39.92;25.85;;;;;;;16.11;100.00;96777.13;4966907;28;20514;-53
2022/10/20 00:46:12;;;;;;;35.70;24.85;;;;;;;16.37;100.00;96768.84;4966495;28;20479;-48
2022/10/20 00:48:42;;;;;;;36.35;22.73;;;;;;;16.25;100.00;96766.78;4963313;28;20523;-47
2022/10/20 00:51:13;;;;;;;38.33;28.52;;;;;;;16.13;100.00;96776.94;4963964;28;20561;-49
2022/10/20 00:53:42;;;;;;;34.35;24.73;;;;;;;16.79;100.00;96769.50;4964378;28;20085;-42
2022/10/20 00:56:11;;;;;;;33.17;21.95;;;;;;;16.35;100.00;96768.22;4965703;28;20118;-46
2022/10/20 00:58:41;;;;;;;36.05;26.23;;;;;;;16.21;100.00;96765.44;4966380;28;20062;-46
2022/10/20 01:01:10;;;;;;;40.58;25.58;;;;;;;16.36;100.00;96769.88;4965693;28;20097;-44
2022/10/20 01:03:44;;;;;;;36.63;22.83;;;;;;;16.64;100.00;96761.41;4966576;28;20463;-46
2022/10/20 01:06:17;;;;;;;31.48;21.15;;;;;;;16.72;100.00;96765.84;4964399;28;20043;-43
2022/10/20 01:08:46;;;;;;;32.55;20.45;;;;;;;16.28;100.00;96769.09;4963619;28;20101;-43
2022/10/20 01:11:18;;;;;;;30.88;17.48;;;;;;;16.24;100.00;96752.63;4967416;28;20502;-47
2022/10/20 01:13:57;;;;;;;32.28;21.70;;;;;;;16.19;100.00;96752.31;4965111;28;20089;-42
2022/10/20 01:16:32;;;;;;;30.38;21.35;;;;;;;16.85;100.00;96742.16;4965353;28;20113;-45
2022/10/20 01:19:08;;;;;;;30.10;21.08;;;;;;;16.13;100.00;96737.84;4970326;28;20078;-44
2022/10/20 01:22:08;;;;;;;28.27;20.00;;;;;;;16.98;100.00;96738.94;4969417;28;20070;-43
2022/10/20 01:24:55;;;;;;;31.63;19.90;;;;;;;16.48;100.00;96737.53;4952642;28;20148;-45
2022/10/20 01:27:29;;;;;;;28.85;19.17;;;;;;;16.25;100.00;96734.84;4962830;28;20093;-47
2022/10/20 01:30:03;;;;;;;30.52;21.60;;;;;;;15.85;100.00;96728.66;4969488;28;20089;-44
2022/10/20 01:32:37;;;;;;;31.83;20.20;;;;;;;15.31;100.00;96725.72;4969735;28;20090;-42
2022/10/20 01:35:10;;;;;;;33.05;23.33;;;;;;;15.80;100.00;96725.69;4970050;28;20093;-48
2022/10/20 01:37:42;;;;;;;27.92;18.00;;;;;;;15.63;100.00;96731.00;4968359;28;20078;-43
2022/10/20 01:40:24;;;;;;;29.33;21.67;;;;;;;16.04;100.00;96724.78;4968361;28;20081;-43
2022/10/20 01:42:57;;;;;;;29.92;16.83;;;;;;;15.79;100.00;96729.34;4969409;28;20446;-45
2022/10/20 01:45:28;;;;;;;29.15;18.38;;;;;;;15.72;100.00;96731.84;4968441;28;20082;-46
2022/10/20 01:47:57;;;;;;;26.60;18.15;;;;;;;16.04;100.00;96730.09;4969135;28;20105;-43
2022/10/20 01:50:25;;;;;;;24.40;15.35;;;;;;;15.76;100.00;96719.03;4970472;28;20082;-47
2022/10/20 01:52:56;;;;;;;22.27;15.15;;;;;;;15.75;100.00;96710.22;4969447;28;20478;-49
2022/10/20 01:55:25;;;;;;;30.50;19.92;;;;;;;15.96;100.00;96714.16;4968295;28;20082;-44
2022/10/20 01:58:20;;;;;;;39.13;12.65;;;;;;;15.53;100.00;96711.75;4968031;28;20074;-46
2022/10/20 02:00:49;;;;;;;24.73;16.00;;;;;;;15.77;100.00;96718.06;4968951;28;21119;-46
2022/10/20 02:03:29;;;;;;;22.77;15.25;;;;;;;15.61;100.00;96718.88;4968930;28;20075;-43
2022/10/20 02:06:07;;;;;;;23.30;15.53;;;;;;;15.85;100.00;96712.69;4966509;28;20070;-45
2022/10/20 02:08:39;;;;;;;24.58;17.92;;;;;;;15.79;100.00;96706.22;4969408;28;20082;-47
2022/10/20 02:11:10;;;;;;;22.38;15.18;;;;;;;15.82;100.00;96711.19;4968737;28;20078;-44
2022/10/20 02:13:41;;;;;;;24.13;18.65;;;;;;;15.56;100.00;96707.94;4967533;28;20070;-46
2022/10/20 02:16:14;;;;;;;26.10;16.67;;;;;;;15.63;100.00;96711.56;4968973;28;20078;-45
2022/10/20 02:18:43;;;;;;;23.80;14.05;;;;;;;15.84;100.00;96709.22;4968848;28;20082;-48
2022/10/20 02:21:12;;;;;;;24.10;17.40;;;;;;;15.83;100.00;96704.09;4966288;28;20085;-50
2022/10/20 02:23:42;;;;;;;22.27;14.10;;;;;;;15.47;100.00;96701.78;4966470;28;20086;-45
2022/10/20 02:26:13;;;;;;;27.08;15.57;;;;;;;15.27;100.00;96709.28;4965730;28;20097;-43
2022/10/20 02:28:46;;;;;;;24.23;15.68;;;;;;;15.70;100.00;96696.63;4966556;28;20519;-48
2022/10/20 02:31:14;;;;;;;26.60;18.05;;;;;;;15.65;100.00;96702.41;4966742;28;20082;-48
2022/10/20 02:33:43;;;;;;;21.80;14.52;;;;;;;15.42;100.00;96710.28;4968292;28;20109;-43
2022/10/20 02:36:16;;;;;;;21.38;14.68;;;;;;;15.43;100.00;96701.31;4968669;28;20094;-42
2022/10/20 02:38:45;;;;;;;20.38;13.57;;;;;;;15.87;100.00;96703.56;4971570;28;20118;-46
2022/10/20 02:41:13;;;;;;;22.52;15.65;;;;;;;14.96;100.00;96701.19;4967098;28;20538;-45
2022/10/20 02:43:43;;;;;;;26.73;17.17;;;;;;;15.34;100.00;96688.19;4970528;28;20459;-48
2022/10/20 02:46:11;;;;;;;26.75;16.10;;;;;;;15.74;100.00;96689.97;4971651;28;20098;-44
2022/10/20 02:48:40;;;;;;;24.23;16.52;;;;;;;15.17;100.00;96688.25;4967908;28;20082;-43
2022/10/20 02:51:08;;;;;;;24.40;15.98;;;;;;;15.64;100.00;96686.63;4970465;28;20443;-46
2022/10/20 02:53:36;;;;;;;22.00;15.13;;;;;;;15.46;100.00;96678.06;4969152;28;20074;-48
2022/10/20 02:56:05;;;;;;;26.23;16.33;;;;;;;15.31;100.00;96680.56;4971182;28;20125;-52
2022/10/20 02:58:33;;;;;;;24.35;14.73;;;;;;;15.55;100.00;96677.84;4970916;28;20086;-46
2022/10/20 03:01:03;;;;;;;23.50;16.92;;;;;;;15.47;100.00;96669.91;4969344;28;20086;-46
2022/10/20 03:03:31;;;;;;;21.10;14.82;;;;;;;15.28;100.00;96676.44;4970728;28;20078;-46
2022/10/20 03:06:07;;;;;;;24.30;17.75;;;;;;;15.16;100.00;96675.09;4970496;28;20090;-46
2022/10/20 03:08:35;;;;;;;21.13;14.63;;;;;;;14.60;100.00;96682.09;4968860;28;20499;-51
2022/10/20 03:11:04;;;;;;;21.38;12.90;;;;;;;15.32;100.00;96674.28;4965349;28;20086;-48
2022/10/20 03:13:32;;;;;;;23.55;14.73;;;;;;;15.29;100.00;96680.75;4971578;28;20065;-49
2022/10/20 03:16:00;;;;;;;20.65;13.77;;;;;;;15.43;100.00;96677.38;4971797;28;20082;-46
2022/10/20 03:18:30;;;;;;;21.95;11.98;;;;;;;15.34;100.00;96670.41;4971672;28;20093;-46
2022/10/20 03:20:58;;;;;;;20.77;13.57;;;;;;;15.63;100.00;96672.53;4969479;28;20079;-46
2022/10/20 03:23:26;;;;;;;25.85;15.25;;;;;;;14.98;100.00;96666.50;4966772;28;20516;-45
2022/10/20 03:26:01;;;;;;;23.10;13.43;;;;;;;15.47;100.00;96664.59;4967049;28;20086;-43
2022/10/20 03:28:29;;;;;;;18.15;12.30;;;;;;;15.61;100.00;96657.75;4968569;28;20509;-48
2022/10/20 03:30:58;;;;;;;19.17;12.98;;;;;;;15.65;100.00;96654.56;4967028;28;20081;-43
2022/10/20 03:33:26;;;;;;;20.00;12.55;;;;;;;14.98;100.00;96659.38;4968807;28;20071;-45
2022/10/20 03:35:56;;;;;;;25.60;14.30;;;;;;;15.18;100.00;96676.59;4965582;28;20065;-42
2022/10/20 03:38:24;;;;;;;23.55;13.77;;;;;;;14.95;100.00;96670.31;4967296;28;20093;-51
2022/10/20 03:40:53;;;;;;;20.63;14.35;;;;;;;15.11;100.00;96669.50;4965318;28;20086;-45
2022/10/20 03:43:21;;;;;;;16.08;11.48;;;;;;;15.16;100.00;96670.63;4964822;28;20081;-46
2022/10/20 03:45:49;;;;;;;18.38;11.45;;;;;;;14.59;100.00;96673.31;4966399;28;20097;-48
2022/10/20 03:48:17;;;;;;;19.70;13.48;;;;;;;14.84;100.00;96676.78;4967011;28;20081;-48
2022/10/20 03:50:46;;;;;;;23.15;11.82;;;;;;;14.95;100.00;96673.78;4967042;28;20078;-46
2022/10/20 03:53:15;;;;;;;18.33;11.00;;;;;;;15.18;100.00;96683.75;4963522;28;20081;-49
2022/10/20 03:55:44;;;;;;;18.20;11.80;;;;;;;15.09;100.00;96674.94;4967765;28;20070;-43
2022/10/20 03:58:12;;;;;;;20.13;12.07;;;;;;;15.04;100.00;96682.59;4965560;28;20506;-46
2022/10/20 04:00:40;;;;;;;16.67;11.63;;;;;;;15.30;100.00;96677.06;4966638;28;20090;-47
2022/10/20 04:03:08;;;;;;;16.80;11.70;;;;;;;14.94;100.00;96684.59;4968233;28;20089;-48
2022/10/20 04:05:37;;;;;;;17.33;12.02;;;;;;;14.70;100.00;96678.28;4969513;28;20079;-45
2022/10/20 04:08:05;;;;;;;15.63;10.55;;;;;;;14.85;100.00;96670.47;4970227;28;20085;-47
2022/10/20 04:10:35;;;;;;;20.40;12.02;;;;;;;15.02;100.00;96676.63;4970239;28;20604;-47
2022/10/20 04:13:03;;;;;;;20.23;13.10;;;;;;;14.69;100.00;96662.50;4970096;28;20086;-45
2022/10/20 04:15:32;;;;;;;20.30;11.40;;;;;;;15.22;100.00;96663.81;4967449;28;20119;-45
2022/10/20 04:18:00;;;;;;;17.33;10.63;;;;;;;15.22;100.00;96660.34;4968409;28;20576;-46
2022/10/20 04:20:28;;;;;;;18.35;10.73;;;;;;;14.41;100.00;96653.97;4970474;28;20079;-45
2022/10/20 04:22:56;;;;;;;15.27;11.77;;;;;;;15.30;100.00;96655.81;4970354;28;20085;-45
2022/10/20 04:25:25;;;;;;;16.20;10.57;;;;;;;14.81;100.00;96655.88;4970715;28;20098;-44
2022/10/20 04:27:54;;;;;;;20.27;10.73;;;;;;;15.06;100.00;96662.00;4970153;28;20504;-43
2022/10/20 04:30:22;;;;;;;17.40;11.48;;;;;;;15.53;100.00;96663.09;4969993;28;20105;-47
2022/10/20 04:32:51;;;;;;;16.13;11.45;;;;;;;15.24;100.00;96663.63;4970029;28;20082;-43
2022/10/20 04:35:19;;;;;;;17.23;10.82;;;;;;;15.15;100.00;96666.31;4970732;28;20078;-43
2022/10/20 04:37:47;;;;;;;15.32;10.05;;;;;;;15.42;100.00;96659.78;4970040;28;20394;-43
2022/10/20 04:40:16;;;;;;;16.35;9.38;;;;;;;15.84;100.00;96657.84;4969230;28;20069;-44
2022/10/20 04:42:49;;;;;;;17.73;9.68;;;;;;;15.29;100.00;96662.13;4964838;28;20078;-43
2022/10/20 04:45:19;;;;;;;15.95;9.50;;;;;;;14.98;100.00;96656.72;4969407;28;20070;-46
2022/10/20 04:47:47;;;;;;;14.15;10.23;;;;;;;15.65;100.00;96659.88;4968545;28;20081;-43
2022/10/20 04:50:16;;;;;;;17.45;10.70;;;;;;;15.39;100.00;96643.34;4970242;28;20095;-44
2022/10/20 04:52:44;;;;;;;13.50;9.23;;;;;;;15.30;100.00;96647.03;4973922;28;20085;-43
2022/10/20 04:55:30;;;;;;;15.50;10.25;;;;;;;15.62;100.00;96632.81;4969558;28;20078;-42
2022/10/20 04:57:58;;;;;;;14.95;10.25;;;;;;;15.52;100.00;96635.69;4974241;28;20063;-44
2022/10/20 05:00:28;;;;;;;13.85;10.23;;;;;;;15.40;100.00;96631.72;4967471;28;20074;-43
2022/10/20 05:02:56;;;;;;;17.53;11.33;;;;;;;14.95;100.00;96626.00;4968004;28;20073;-43
2022/10/20 05:05:25;;;;;;;14.35;9.13;;;;;;;15.52;100.00;96634.81;4974053;28;20078;-42
2022/10/20 05:07:53;;;;;;;15.48;10.00;;;;;;;15.53;100.00;96631.19;4973335;28;20090;-44
2022/10/20 05:10:21;;;;;;;13.32;9.73;;;;;;;15.24;100.00;96621.94;4973995;28;20071;-43
2022/10/20 05:12:49;;;;;;;14.43;9.70;;;;;;;15.22;100.00;96620.50;4973549;28;20074;-43
2022/10/20 05:15:18;;;;;;;16.15;10.80;;;;;;;15.26;100.00;96624.44;4973501;28;20086;-50
2022/10/20 05:17:47;;;;;;;14.45;9.82;;;;;;;15.35;100.00;96618.13;4973750;28;20497;-44
2022/10/20 05:20:16;;;;;;;15.37;10.57;;;;;;;14.85;100.00;96619.22;4971905;28;20082;-43
2022/10/20 05:22:44;;;;;;;22.48;11.02;;;;;;;15.33;100.00;96620.13;4974094;28;20077;-46
2022/10/20 05:25:12;;;;;;;18.10;11.20;;;;;;;15.33;100.00;96617.47;4974139;28;20082;-46
2022/10/20 05:28:01;;;;;;;17.35;11.25;;;;;;;14.85;100.00;96633.31;4972552;28;20484;-49
2022/10/20 05:30:29;;;;;;;19.35;11.40;;;;;;;14.91;100.00;96618.53;4967418;28;20066;-45
2022/10/20 05:32:59;;;;;;;20.65;12.55;;;;;;;15.30;100.00;96623.13;4973339;28;20519;-43
2022/10/20 05:35:28;;;;;;;19.00;11.03;;;;;;;14.82;100.00;96622.19;4973652;28;20082;-45
2022/10/20 05:37:57;;;;;;;18.92;12.65;;;;;;;14.69;100.00;96620.88;4971483;28;20454;-44
2022/10/20 05:40:26;;;;;;;15.40;10.23;;;;;;;15.35;100.00;96618.13;4967669;28;20078;-45
2022/10/20 05:42:56;;;;;;;16.92;10.18;;;;;;;14.88;100.00;96622.34;4972974;28;20081;-50
2022/10/20 05:45:24;;;;;;;17.33;9.75;;;;;;;13.92;100.00;96619.41;4973048;28;20089;-43
2022/10/20 05:47:52;;;;;;;17.85;12.05;;;;;;;14.57;100.00;96621.38;4966462;28;20084;-43
2022/10/20 05:50:22;;;;;;;19.20;11.57;;;;;;;15.32;100.00;96621.94;4968387;28;20524;-43
2022/10/20 05:52:51;;;;;;;19.40;11.70;;;;;;;14.24;100.00;96626.59;4966990;28;20082;-45
2022/10/20 05:55:19;;;;;;;18.27;10.68;;;;;;;14.92;100.00;96628.16;4970585;28;20071;-43
2022/10/20 05:57:49;;;;;;;17.05;11.88;;;;;;;15.15;100.00;96633.63;4965778;28;20584;-46
2022/10/20 06:00:22;;;;;;;17.67;10.97;;;;;;;14.90;100.00;96635.44;4972524;28;20545;-44
2022/10/20 06:02:53;;;;;;;15.75;10.05;;;;;;;15.64;100.00;96638.78;4971716;28;20091;-48
2022/10/20 06:05:23;;;;;;;18.60;10.13;;;;;;;15.37;100.00;96632.88;4968448;28;20495;-47
2022/10/20 06:07:53;;;;;;;16.48;10.20;;;;;;;15.22;100.00;96618.66;4972644;28;20067;-45
2022/10/20 06:10:21;;;;;;;14.77;9.13;;;;;;;15.24;100.00;96621.94;4966632;28;20458;-46
2022/10/20 06:12:49;;;;;;;17.17;9.55;;;;;;;15.04;100.00;96615.38;4962166;28;20081;-48
2022/10/20 06:15:18;;;;;;;15.77;9.18;;;;;;;14.76;100.00;96615.72;4972211;28;20082;-44
2022/10/20 06:17:47;;;;;;;13.88;9.68;;;;;;;14.65;100.00;96624.00;4972557;28;20073;-45
2022/10/20 06:20:15;;;;;;;12.70;9.68;;;;;;;14.89;100.00;96620.53;4972144;28;20082;-46
2022/10/20 06:22:45;;;;;;;15.90;11.43;;;;;;;14.70;100.00;96619.06;4972129;28;20094;-44
2022/10/20 06:25:13;;;;;;;16.52;10.35;;;;;;;14.75;100.00;96621.19;4968469;28;20557;-43
2022/10/20 06:27:43;;;;;;;13.52;9.95;;;;;;;14.45;100.00;96628.78;4972311;28;20066;-46
2022/10/20 06:30:11;;;;;;;13.38;9.32;;;;;;;14.65;100.00;96621.38;4972358;28;20093;-49
2022/10/20 06:32:40;;;;;;;19.38;8.82;;;;;;;14.82;100.00;96622.19;4968099;28;20070;-46
2022/10/20 06:35:08;;;;;;;12.48;9.25;;;;;;;15.30;100.00;96623.13;4963007;28;20066;-47
2022/10/20 06:37:37;;;;;;;13.57;9.48;;;;;;;15.10;100.00;96626.13;4972430;28;20074;-46
2022/10/20 06:40:07;;;;;;;12.55;8.65;;;;;;;14.93;100.00;96622.69;4972158;28;20091;-46
2022/10/20 06:42:35;;;;;;;;;;;;;;;14.71;100.00;96628.66;4972481;28;20078;-46
2022/10/20 06:45:05;;;;;;;16.02;9.57;;;;;;;14.93;100.00;96621.84;4972550;28;19968;-44
2022/10/20 06:47:33;;;;;;;13.68;9.43;;;;;;;14.90;100.00;96622.16;4971758;28;20094;-45
2022/10/20 06:50:03;;;;;;;16.75;9.48;;;;;;;15.18;100.00;96622.66;4972408;28;20077;-46
2022/10/20 06:52:32;;;;;;;16.60;9.25;;;;;;;15.01;100.00;96624.50;4966178;28;20564;-44
2022/10/20 06:55:00;;;;;;;13.20;10.52;;;;;;;14.89;100.00;96623.19;4970179;28;20094;-41
2022/10/20 06:57:32;;;;;;;18.10;9.95;;;;;;;15.21;100.00;96603.72;4972116;28;20050;-45
2022/10/20 07:00:00;;;;;;;15.30;8.75;;;;;;;15.00;100.00;96614.03;4971262;28;20473;-45
2022/10/20 07:02:30;;;;;;;14.82;10.18;;;;;;;14.97;100.00;96607.25;4971995;28;20483;-47
2022/10/20 07:04:59;;;;;;;12.23;9.73;;;;;;;15.71;100.00;96613.19;4971971;28;20093;-47
2022/10/20 07:07:27;;;;;;;12.57;8.10;;;;;;;15.69;100.00;96622.34;4970241;28;20529;-46
2022/10/20 07:09:56;;;;;;;13.77;9.98;;;;;;;15.81;100.00;96621.78;4971826;28;20086;-43
2022/10/20 07:12:24;;;;;;;13.68;9.45;;;;;;;15.51;100.00;96631.34;4972005;28;20086;-42
2022/10/20 07:14:53;;;;;;;16.00;8.75;;;;;;;15.95;100.00;96627.38;4966578;28;20638;-48
2022/10/20 07:17:22;;;;;;;13.07;9.05;;;;;;;16.03;100.00;96628.16;4965958;28;20090;-46
2022/10/20 07:19:50;;;;;;;15.02;8.68;;;;;;;15.42;100.00;96617.28;4971549;28;20561;-47
2022/10/20 07:22:18;;;;;;;12.25;9.13;;;;;;;15.96;100.00;96621.88;4971390;28;20457;-46
2022/10/20 07:24:47;;;;;;;13.65;10.77;;;;;;;15.30;100.00;96615.97;4971611;28;20143;-45
2022/10/20 07:27:16;;;;;;;11.55;8.90;;;;;;;15.79;100.00;96602.50;4971174;28;20094;-46
2022/10/20 07:29:44;;;;;;;18.80;10.15;;;;;;;16.47;100.00;96603.59;4967238;28;20086;-48
2022/10/20 07:32:13;;;;;;;13.85;9.45;;;;;;;16.70;100.00;96602.78;4969830;28;20097;-46
2022/10/20 07:34:42;;;;;;;14.85;9.50;;;;;;;16.87;100.00;96599.00;4968519;28;20101;-47
2022/10/20 07:37:10;;;;;;;14.27;8.07;;;;;;;15.84;100.00;96600.19;4971062;28;20078;-43
2022/10/20 07:39:38;;;;;;;13.88;8.90;;;;;;;15.68;100.00;96597.59;4965766;28;20078;-44
2022/10/20 07:42:07;;;;;;;14.80;8.40;;;;;;;16.82;100.00;96604.00;4971254;28;20086;-45
2022/10/20 07:44:35;;;;;;;13.13;9.23;;;;;;;16.50;100.00;96605.09;4971514;28;20081;-44
2022/10/20 07:47:04;;;;;;;13.35;8.52;;;;;;;16.38;100.00;96599.38;4971254;28;20496;-44
2022/10/20 07:49:37;;;;;;;13.98;9.38;;;;;;;16.70;100.00;96597.44;4964820;28;20051;-43
2022/10/20 07:52:11;;;;;;;17.10;7.97;;;;;;;16.91;100.00;96602.13;4969993;28;20070;-42
2022/10/20 07:54:40;;;;;;;15.30;8.45;;;;;;;16.52;100.00;96601.25;4970808;28;20108;-42
2022/10/20 07:57:08;;;;;;;11.77;8.40;;;;;;;16.87;100.00;96600.84;4971336;28;20089;-43
2022/10/20 07:59:37;;;;;;;12.85;8.98;;;;;;;16.13;100.00;96604.00;4970000;28;20509;-45
2022/10/20 08:02:05;;;;;;;14.25;8.95;;;;;;;16.49;100.00;96603.44;4969632;28;20089;-47
2022/10/20 08:04:33;;;;;;;11.30;8.32;;;;;;;17.54;100.00;96598.13;4966275;28;20081;-46
2022/10/20 08:07:03;;;;;;;10.15;7.05;;;;;;;17.55;100.00;96591.78;4967083;28;20078;-42
2022/10/20 08:09:32;;;;;;;12.27;8.27;;;;;;;17.15;100.00;96598.41;4970632;28;20556;-47
2022/10/20 08:12:01;;;;;;;13.00;8.27;;;;;;;17.01;100.00;96598.19;4970938;28;20477;-42
2022/10/20 08:14:32;;;;;;;10.38;7.40;;;;;;;15.98;100.00;96600.44;4971149;28;20059;-42
2022/10/20 08:17:01;;;;;;;12.85;7.88;;;;;;;17.63;100.00;96598.84;4969350;28;20078;-43
2022/10/20 08:19:30;;;;;;;12.38;8.70;;;;;;;16.48;100.00;96596.44;4969919;28;20074;-42
2022/10/20 08:22:23;;;;;;;10.93;7.90;;;;;;;17.41;100.00;96589.94;4963371;28;20533;-51
2022/10/20 08:24:56;;;;;;;10.27;7.22;;;;;;;16.97;100.00;96583.56;4967259;28;20054;-48
2022/10/20 08:27:24;;;;;;;14.82;7.60;;;;;;;16.94;100.00;96585.78;4964919;28;20081;-46
2022/10/20 08:29:53;;;;;;;15.60;7.68;;;;;;;17.61;100.00;96583.03;4965657;28;20078;-45
2022/10/20 08:32:33;;;;;;;10.88;8.10;;;;;;;16.64;100.00;96580.34;4969707;28;20101;-47
2022/10/20 08:35:02;;;;;;;11.30;6.70;;;;;;;16.95;100.00;96579.44;4970186;28;20089;-45
2022/10/20 08:37:32;;;;;;;13.35;7.13;;;;;;;17.53;100.00;96570.63;4970549;28;20105;-51
2022/10/20 08:40:01;;;;;;;11.27;6.70;;;;;;;18.20;100.00;96566.94;4970099;28;20082;-44
2022/10/20 08:42:30;;;;;;;11.80;7.50;;;;;;;17.91;100.00;96572.34;4970039;28;20079;-45
2022/10/20 08:44:59;;;;;;;11.50;7.20;;;;;;;17.32;100.00;96568.72;4967927;28;20086;-45
2022/10/20 08:47:31;;;;;;;9.60;7.23;;;;;;;17.15;100.00;96572.56;4964868;28;20520;-46
2022/10/20 08:50:01;;;;;;;10.75;7.20;;;;;;;17.30;100.00;96573.38;4970601;28;20480;-48
2022/10/20 08:52:29;;;;;;;12.00;7.40;;;;;;;17.37;100.00;96576.16;4970321;28;20425;-46
2022/10/20 08:54:59;;;;;;;9.50;6.75;;;;;;;18.33;100.00;96570.75;4971294;28;20074;-48
2022/10/20 08:57:30;;;;;;;10.60;7.45;;;;;;;17.56;100.00;96583.59;4970869;28;20079;-46
2022/10/20 09:00:15;;;;;;;10.73;6.10;;;;;;;18.29;100.00;96569.47;4963024;28;20059;-49
2022/10/20 09:02:43;;;;;;;;;;;;;;;17.65;100.00;96559.47;4963658;28;20074;-45
2022/10/20 09:05:13;;;;;;;9.43;6.53;;;;;;;18.25;100.00;96559.16;4970271;28;19954;-43
2022/10/20 09:07:48;;;;;;;11.00;7.30;;;;;;;17.62;100.00;96557.19;4970008;28;20078;-43
2022/10/20 09:10:31;;;;;;;10.60;6.68;;;;;;;18.57;100.00;96548.97;4970001;28;20089;-46
2022/10/20 09:13:00;;;;;;;13.07;7.80;;;;;;;17.98;100.00;96547.38;4970242;28;20533;-46
2022/10/20 09:15:29;;;;;;;9.88;7.70;;;;;;;18.39;100.00;96535.28;4969655;28;20093;-48
2022/10/20 09:18:00;;;;;;;9.57;6.18;;;;;;;18.09;100.00;96532.72;4970425;28;20109;-49
2022/10/20 09:20:33;;;;;;;10.15;7.25;;;;;;;18.16;100.00;96544.28;4970214;28;20082;-48
2022/10/20 09:23:19;;;;;;;9.15;6.68;;;;;;;19.52;100.00;96528.06;4962877;28;20075;-48
2022/10/20 09:26:14;;;;;;;8.82;6.47;;;;;;;18.23;100.00;96539.84;4969735;28;20101;-47
2022/10/20 09:29:07;;;;;;;10.05;6.90;;;;;;;19.39;100.00;96531.47;4966281;28;20086;-49
2022/10/20 09:31:42;;;;;;;12.50;7.05;;;;;;;19.13;100.00;96532.16;4969186;28;20070;-45
2022/10/20 09:34:22;;;;;;;13.75;7.18;;;;;;;19.26;100.00;96524.19;4969813;28;20094;-47
2022/10/20 09:36:51;;;;;;;10.63;6.70;;;;;;;18.88;100.00;96527.25;4970759;28;20082;-45
2022/10/20 09:39:21;;;;;;;11.38;6.72;;;;;;;19.89;100.00;96529.47;4973368;28;20085;-43
2022/10/20 09:42:00;;;;;;;11.05;6.28;;;;;;;19.68;100.00;96535.75;4966442;28;20078;-46
2022/10/20 09:44:35;;;;;;;15.63;7.60;;;;;;;19.32;100.00;96552.00;4971050;28;20075;-48
2022/10/20 09:47:04;;;;;;;11.43;6.97;;;;;;;19.72;100.00;96536.16;4970427;28;20638;-44
2022/10/20 09:49:35;;;;;;;11.88;7.32;;;;;;;19.58;100.00;96533.44;4973198;28;20077;-46
2022/10/20 09:52:13;;;;;;;13.57;7.63;;;;;;;20.79;100.00;96536.19;4973432;28;20070;-43
2022/10/20 09:54:46;;;;;;;10.35;7.22;;;;;;;19.98;100.00;96538.94;4971025;28;20078;-43
2022/10/20 09:57:19;;;;;;;9.27;6.70;;;;;;;20.28;100.00;96539.44;4971532;28;20097;-46
2022/10/20 09:59:49;;;;;;;10.55;6.80;;;;;;;20.48;100.00;96531.41;4968638;28;20078;-43
2022/10/20 10:02:31;;;;;;;10.82;6.97;;;;;;;20.61;100.00;96522.56;4972554;28;20093;-46
2022/10/20 10:05:19;;;;;;;9.20;6.32;;;;;;;20.94;100.00;96527.09;4972987;28;20082;-47
2022/10/20 10:07:58;;;;;;;10.10;7.22;;;;;;;20.78;100.00;96528.34;4972411;28;20097;-44
2022/10/20 10:10:28;;;;;;;13.77;7.00;;;;;;;20.70;100.00;96534.75;4969522;28;20082;-44
2022/10/20 10:13:00;;;;;;;11.90;7.47;;;;;;;21.04;100.00;96522.13;4972527;28;20085;-46
2022/10/20 10:15:30;;;;;;;14.02;6.70;;;;;;;20.78;100.00;96541.75;4972310;28;20083;-48
2022/10/20 10:17:59;;;;;;;13.75;7.82;;;;;;;20.62;100.00;96529.59;4965782;28;20078;-43
2022/10/20 10:20:37;;;;;;;11.45;6.60;;;;;;;21.12;100.00;96523.75;4964397;28;20070;-45
2022/10/20 10:23:18;;;;;;;11.10;6.82;;;;;;;21.49;100.00;96508.84;4970194;28;20094;-46
2022/10/20 10:25:47;;;;;;;10.70;7.10;;;;;;;20.95;100.00;96518.84;4969179;28;20050;-47
2022/10/20 10:28:29;;;;;;;9.73;6.90;;;;;;;21.48;100.00;96507.19;4972104;28;20486;-49
2022/10/20 10:31:19;;;;;;;11.32;7.07;;;;;;;20.98;100.00;96515.75;4971930;28;20066;-43
2022/10/20 10:33:50;;;;;;;12.05;7.30;;;;;;;21.11;100.00;96517.59;4968454;28;20066;-46
2022/10/20 10:36:27;;;;;;;13.82;7.47;;;;;;;20.65;100.00;96510.44;4971201;28;20537;-43
2022/10/20 10:38:57;;;;;;;8.68;6.38;;;;;;;20.63;100.00;96509.81;4967472;28;20521;-43
2022/10/20 10:41:35;;;;;;;9.57;7.07;;;;;;;21.31;100.00;96494.22;4970647;28;20082;-43
2022/10/20 10:44:09;;;;;;;12.52;7.32;;;;;;;20.69;100.00;96506.31;4972474;28;20071;-50
2022/10/20 10:46:43;;;;;;;11.55;8.20;;;;;;;21.58;100.00;96480.75;4967786;28;20094;-48
2022/10/20 10:49:25;;;;;;;11.05;7.55;;;;;;;21.35;100.00;96491.16;4965443;28;20078;-44
2022/10/20 10:52:00;;;;;;;11.73;7.95;;;;;;;20.63;100.00;96494.53;4971648;28;20450;-43
2022/10/20 10:54:40;;;;;;;9.93;7.13;;;;;;;21.86;100.00;96491.13;4972301;28;20074;-43
2022/10/20 10:57:15;;;;;;;17.17;7.85;;;;;;;22.57;96.20;96483.84;4971729;28;20140;-43
2022/10/20 10:59:48;;;;;;;11.45;6.95;;;;;;;22.41;90.48;96480.66;4971321;28;20078;-43
2022/10/20 11:02:55;;;;;;;12.10;6.75;;;;;;;21.21;100.00;96482.28;4967650;28;20283;-49
2022/10/20 11:05:31;;;;;;;12.10;6.80;;;;;;;20.94;100.00;96476.16;4969467;28;20086;-45
2022/10/20 11:08:10;;;;;;;11.93;6.50;;;;;;;21.79;100.00;96468.88;4966156;28;20078;-45
2022/10/20 11:10:43;;;;;;;11.27;6.88;;;;;;;21.45;100.00;96472.75;4967039;28;20073;-44
2022/10/20 11:13:20;;;;;;;10.07;6.03;;;;;;;21.94;100.00;96473.94;4971020;28;20101;-43
2022/10/20 11:16:12;;;;;;;10.18;6.43;;;;;;;21.98;100.00;96467.09;4964607;28;20078;-47
2022/10/20 11:19:22;;;;;;;8.55;6.55;;;;;;;23.18;92.19;96456.19;4965275;28;20083;-43
2022/10/20 11:21:59;;;;;;;8.35;6.43;;;;;;;21.84;100.00;96452.91;4910586;29;20075;-44
2022/10/20 11:24:37;;;;;;;9.27;6.38;;;;;;;22.18;100.00;96443.63;4960640;28;20082;-44
2022/10/20 11:27:10;;;;;;;10.98;6.60;;;;;;;22.30;100.00;96435.72;4971106;28;20525;-46
2022/10/20 11:29:42;;;;;;;9.07;6.93;;;;;;;22.12;100.00;96436.41;4971111;28;20145;-43
2022/10/20 11:32:24;;;;;;;8.80;6.43;;;;;;;21.80;100.00;96446.34;4971122;28;20066;-43
2022/10/20 11:34:59;;;;;;;10.82;6.93;;;;;;;22.33;100.00;96440.63;4966618;28;20078;-44